Time;durP1;ratioP1;P1;durP2;ratioP2;P2;SDS_P1;SDS_P2;PMS_P1;PMS_P2;Temp;Humidity;BMP_temperature;BMP_pressure;BME280_temperature;BME280_humidity;BME280_pressure;Samples;Min_cycle;Max_cycle;Signal;HPM_P1;HPM_P2
2023/06/29 00:02:44;;;;;;;5.75;4.20;;;16.90;99.90;;;;;;6224749;28;20053;-79
2023/06/29 00:05:47;;;;;;;4.22;3.70;;;16.90;99.90;;;;;;6226691;28;20050;-78
2023/06/29 00:08:49;;;;;;;4.30;3.80;;;17.00;99.90;;;;;;6227112;28;20053;-78
2023/06/29 00:11:50;;;;;;;4.97;3.90;;;16.90;99.90;;;;;;6226080;28;20054;-79
2023/06/29 00:14:52;;;;;;;4.15;3.83;;;16.80;99.90;;;;;;6226422;28;20042;-79
2023/06/29 00:17:57;;;;;;;3.67;3.38;;;16.80;99.90;;;;;;6226086;28;20068;-78
2023/06/29 00:21:02;;;;;;;6.68;4.32;;;16.90;99.90;;;;;;6226524;28;20188;-78
2023/06/29 00:24:04;;;;;;;3.78;3.45;;;16.90;99.90;;;;;;6226227;28;20073;-79
2023/06/29 00:27:06;;;;;;;3.55;3.25;;;16.80;99.90;;;;;;6226237;28;20045;-78
2023/06/29 00:30:09;;;;;;;5.50;4.85;;;16.80;99.90;;;;;;6225399;28;20053;-79
2023/06/29 00:33:11;;;;;;;6.03;3.75;;;16.70;99.90;;;;;;6227894;28;20056;-78
2023/06/29 00:36:14;;;;;;;4.15;3.85;;;16.80;99.90;;;;;;6225506;28;20046;-79
2023/06/29 00:39:15;;;;;;;4.93;4.53;;;16.80;99.90;;;;;;6230695;28;20057;-79
2023/06/29 00:42:18;;;;;;;5.68;4.22;;;16.70;99.90;;;;;;6232173;28;20063;-79
2023/06/29 00:45:19;;;;;;;4.93;4.32;;;16.60;99.90;;;;;;6233740;28;20049;-79
2023/06/29 00:48:21;;;;;;;7.60;5.72;;;16.50;99.90;;;;;;6216387;28;20057;-79
2023/06/29 00:51:24;;;;;;;6.53;4.28;;;16.50;99.90;;;;;;6208558;28;20061;-79
2023/06/29 00:54:27;;;;;;;4.85;3.83;;;16.50;99.90;;;;;;6210347;28;20070;-79
2023/06/29 00:57:30;;;;;;;4.90;4.35;;;16.50;99.90;;;;;;6210731;28;20046;-79
2023/06/29 01:00:32;;;;;;;6.13;4.50;;;16.40;99.90;;;;;;6207923;28;20109;-78
2023/06/29 01:03:35;;;;;;;5.35;4.10;;;16.40;99.90;;;;;;6201429;28;20679;-78
2023/06/29 01:06:44;;;;;;;5.82;4.90;;;16.30;99.90;;;;;;6203730;28;20065;-78
2023/06/29 01:09:47;;;;;;;4.45;4.05;;;16.30;99.90;;;;;;6203237;28;20050;-78
2023/06/29 01:12:49;;;;;;;4.85;4.45;;;16.30;99.90;;;;;;6197259;28;20058;-78
2023/06/29 01:15:52;;;;;;;6.45;5.10;;;16.20;99.90;;;;;;6197757;28;20046;-77
2023/06/29 01:18:56;;;;;;;5.53;5.03;;;16.20;99.90;;;;;;6198279;28;20042;-78
2023/06/29 01:22:03;;;;;;;7.53;4.63;;;16.20;99.90;;;;;;6200351;28;20107;-78
2023/06/29 01:25:07;;;;;;;4.88;4.40;;;16.20;99.90;;;;;;6200999;28;20568;-77
2023/06/29 01:28:10;;;;;;;7.75;4.72;;;16.20;99.90;;;;;;6201369;28;20084;-78
2023/06/29 01:31:11;;;;;;;5.53;4.97;;;16.10;99.90;;;;;;6202843;28;20050;-78
2023/06/29 01:34:13;;;;;;;6.13;5.00;;;16.10;99.90;;;;;;6203741;28;20057;-78
2023/06/29 01:37:19;;;;;;;4.88;4.57;;;16.10;99.90;;;;;;6204639;28;20064;-79
2023/06/29 01:40:27;;;;;;;5.40;4.72;;;16.00;99.90;;;;;;6204080;28;20054;-78
2023/06/29 01:43:30;;;;;;;8.27;5.53;;;16.00;99.90;;;;;;6202414;28;20050;-78
2023/06/29 01:46:33;;;;;;;5.82;4.75;;;16.00;99.90;;;;;;6203742;28;20124;-78
2023/06/29 01:49:35;;;;;;;5.55;5.15;;;16.00;99.90;;;;;;6203783;28;20057;-79
2023/06/29 01:52:37;;;;;;;7.28;5.85;;;16.10;99.90;;;;;;6207415;28;20049;-78
2023/06/29 01:55:41;;;;;;;5.50;5.10;;;16.00;99.90;;;;;;6204825;28;20058;-79
2023/06/29 01:58:42;;;;;;;5.93;5.32;;;16.00;99.90;;;;;;6202110;28;20056;-78
2023/06/29 02:01:44;;;;;;;7.38;4.72;;;16.00;99.90;;;;;;6202621;28;20062;-78
2023/06/29 02:04:46;;;;;;;4.68;4.30;;;15.90;99.90;;;;;;6203986;28;20061;-80
2023/06/29 02:07:47;;;;;;;5.13;3.97;;;16.00;99.90;;;;;;6204780;28;20046;-79
2023/06/29 02:10:50;;;;;;;9.82;5.65;;;16.00;99.90;;;;;;6203704;28;20066;-79
2023/06/29 02:13:52;;;;;;;10.13;6.50;;;16.00;99.90;;;;;;6201382;28;20417;-79
2023/06/29 02:16:55;;;;;;;5.75;5.25;;;16.00;99.90;;;;;;6202248;28;20054;-79
2023/06/29 02:19:57;;;;;;;5.78;5.28;;;15.90;99.90;;;;;;6201661;28;20045;-78
2023/06/29 02:22:58;;;;;;;5.28;4.82;;;15.90;99.90;;;;;;6202296;28;20142;-79
2023/06/29 02:26:01;;;;;;;7.32;5.35;;;15.90;99.90;;;;;;6204067;28;20057;-79
2023/06/29 02:29:03;;;;;;;5.28;4.78;;;15.80;99.90;;;;;;6205381;28;20049;-78
2023/06/29 02:32:06;;;;;;;6.10;5.47;;;15.70;99.90;;;;;;6207984;28;20050;-79
2023/06/29 02:35:08;;;;;;;12.57;6.80;;;15.60;99.90;;;;;;6207572;28;20050;-79
2023/06/29 02:38:10;;;;;;;8.90;5.72;;;15.50;99.90;;;;;;6208348;28;20524;-78
2023/06/29 02:41:13;;;;;;;5.95;5.45;;;15.50;99.90;;;;;;6231973;28;20042;-78
2023/06/29 02:44:15;;;;;;;5.80;5.18;;;15.60;99.90;;;;;;6231960;28;20077;-79
2023/06/29 02:47:16;;;;;;;7.30;5.35;;;15.70;99.90;;;;;;6231466;28;20042;-78
2023/06/29 02:50:18;;;;;;;9.10;6.20;;;15.70;99.90;;;;;;6231715;28;20053;-78
2023/06/29 02:53:20;;;;;;;6.60;5.78;;;15.70;99.90;;;;;;6209412;28;20050;-78
2023/06/29 02:56:23;;;;;;;6.05;5.45;;;15.70;99.90;;;;;;6208059;28;20042;-78
2023/06/29 02:59:24;;;;;;;5.95;5.43;;;15.60;99.90;;;;;;6207157;28;20057;-78
2023/06/29 03:02:26;;;;;;;6.95;6.18;;;15.60;99.90;;;;;;6207854;28;20061;-78
2023/06/29 03:05:28;;;;;;;7.60;6.05;;;15.60;99.90;;;;;;6207616;28;20057;-79
2023/06/29 03:08:30;;;;;;;6.32;5.82;;;15.50;99.90;;;;;;6207734;28;20051;-79
2023/06/29 03:11:33;;;;;;;6.85;6.15;;;15.50;99.90;;;;;;6207770;28;20050;-79
2023/06/29 03:14:34;;;;;;;6.47;5.88;;;15.40;99.90;;;;;;6208544;28;20052;-79
2023/06/29 03:17:36;;;;;;;6.88;5.60;;;15.40;99.90;;;;;;6207828;28;20402;-78
2023/06/29 03:20:38;;;;;;;6.07;5.50;;;15.50;99.90;;;;;;6209525;28;20050;-79
2023/06/29 03:23:39;;;;;;;8.68;6.13;;;15.40;99.90;;;;;;6205605;28;20042;-78
2023/06/29 03:26:42;;;;;;;10.32;5.45;;;15.50;99.90;;;;;;6202815;28;20050;-78
2023/06/29 03:29:44;;;;;;;9.43;5.28;;;15.60;99.90;;;;;;6203284;28;20057;-78
2023/06/29 03:32:46;;;;;;;21.23;8.00;;;15.70;99.90;;;;;;6199700;28;20087;-77
2023/06/29 03:35:47;;;;;;;18.85;8.80;;;15.70;99.90;;;;;;6198796;28;20370;-77
2023/06/29 03:38:49;;;;;;;7.97;6.35;;;15.70;99.90;;;;;;6197232;28;20046;-78
2023/06/29 03:41:52;;;;;;;13.57;7.18;;;15.70;99.90;;;;;;6197595;28;20042;-78
2023/06/29 03:44:54;;;;;;;6.40;5.82;;;15.60;99.90;;;;;;6199065;28;20061;-77
2023/06/29 03:47:55;;;;;;;10.30;6.30;;;15.70;99.90;;;;;;6197264;28;20057;-78
2023/06/29 03:50:58;;;;;;;7.10;6.10;;;15.70;99.90;;;;;;6199002;28;20087;-76
2023/06/29 03:54:00;;;;;;;10.35;5.53;;;15.70;99.90;;;;;;6198663;28;20425;-77
2023/06/29 03:57:03;;;;;;;10.93;5.47;;;15.70;99.90;;;;;;6198367;28;20073;-78
2023/06/29 04:00:05;;;;;;;5.40;5.00;;;15.80;99.90;;;;;;6197561;28;20054;-77
2023/06/29 04:03:07;;;;;;;7.63;5.28;;;15.80;99.90;;;;;;6200505;28;20046;-78
2023/06/29 04:06:09;;;;;;;6.75;4.47;;;15.80;99.90;;;;;;6197704;28;20058;-78
2023/06/29 04:09:11;;;;;;;4.60;4.25;;;15.90;99.90;;;;;;6198063;28;20070;-78
2023/06/29 04:12:14;;;;;;;4.88;4.47;;;15.90;99.90;;;;;;6197470;28;20055;-78
2023/06/29 04:15:16;;;;;;;4.80;4.40;;;15.90;99.90;;;;;;6197957;28;20050;-78
2023/06/29 04:18:18;;;;;;;6.60;6.05;;;16.00;99.90;;;;;;6197012;28;20053;-77
2023/06/29 04:21:19;;;;;;;5.38;4.63;;;16.20;99.90;;;;;;6197242;28;20070;-77
2023/06/29 04:24:21;;;;;;;6.05;4.63;;;16.70;99.90;;;;;;6197762;28;20058;-78
2023/06/29 04:27:24;;;;;;;5.30;3.70;;;17.30;99.90;;;;;;6196812;28;20414;-78
2023/06/29 04:30:26;;;;;;;5.55;4.63;;;17.90;99.90;;;;;;6197427;28;20065;-78
2023/06/29 04:33:27;;;;;;;5.28;4.07;;;18.30;99.90;;;;;;6196977;28;20528;-78
2023/06/29 04:36:30;;;;;;;4.40;3.78;;;18.50;99.90;;;;;;6198673;28;20046;-78
2023/06/29 04:39:31;;;;;;;5.22;3.95;;;18.90;99.90;;;;;;6213800;28;20053;-78
2023/06/29 04:42:43;;;;;;;5.18;3.80;;;19.40;99.90;;;;;;6217692;28;20058;-78
2023/06/29 04:45:46;;;;;;;5.22;3.90;;;20.00;99.90;;;;;;6223923;28;20058;-78
2023/06/29 04:48:47;;;;;;;4.22;3.67;;;20.60;99.90;;;;;;6224014;28;20057;-79
2023/06/29 04:51:49;;;;;;;7.00;4.05;;;21.10;99.00;;;;;;6224703;28;20064;-78
2023/06/29 04:54:51;;;;;;;6.20;3.33;;;21.60;97.80;;;;;;6224077;28;20416;-78
2023/06/29 04:57:54;;;;;;;3.58;3.20;;;22.20;96.60;;;;;;6224204;28;20152;-78
2023/06/29 05:00:55;;;;;;;5.20;3.70;;;22.80;95.00;;;;;;6222765;28;20053;-78
2023/06/29 05:03:57;;;;;;;4.70;3.03;;;23.30;93.70;;;;;;6220938;28;20105;-77
2023/06/29 05:06:59;;;;;;;5.53;2.95;;;23.90;92.40;;;;;;6220639;28;20579;-77
2023/06/29 05:10:00;;;;;;;4.65;3.10;;;24.60;90.70;;;;;;6221357;28;20049;-77
2023/06/29 05:13:04;;;;;;;5.97;2.38;;;25.10;87.90;;;;;;6221101;28;20050;-78
2023/06/29 05:16:06;;;;;;;4.72;3.58;;;25.60;84.40;;;;;;6222030;28;20094;-78
2023/06/29 05:19:08;;;;;;;5.65;3.30;;;26.10;81.70;;;;;;6223476;28;20123;-78
2023/06/29 05:22:10;;;;;;;3.03;2.75;;;26.50;79.10;;;;;;6224121;28;20424;-77
2023/06/29 05:25:11;;;;;;;6.40;3.45;;;27.00;75.80;;;;;;6223601;28;20050;-78
2023/06/29 05:28:15;;;;;;;5.85;2.55;;;27.70;72.80;;;;;;6220392;28;20128;-77
2023/06/29 05:31:16;;;;;;;9.35;3.13;;;28.40;70.00;;;;;;6220691;28;20152;-78
2023/06/29 05:34:18;;;;;;;3.28;2.58;;;29.10;67.20;;;;;;6220877;28;20429;-77
2023/06/29 05:37:20;;;;;;;3.60;2.85;;;29.80;64.10;;;;;;6223532;28;20060;-78
2023/06/29 05:40:22;;;;;;;4.45;3.40;;;29.60;61.60;;;;;;6226537;28;20046;-78
2023/06/29 05:43:25;;;;;;;3.15;2.85;;;28.70;61.10;;;;;;6221281;28;20046;-78
2023/06/29 05:46:27;;;;;;;5.15;3.10;;;27.60;63.00;;;;;;6223936;28;20049;-78
2023/06/29 05:49:28;;;;;;;7.70;3.20;;;26.90;63.60;;;;;;6211400;28;20045;-78
2023/06/29 05:52:30;;;;;;;3.03;2.80;;;26.40;64.50;;;;;;6211379;28;20045;-77
2023/06/29 05:55:32;;;;;;;6.25;2.92;;;25.80;65.50;;;;;;6209553;28;20038;-78
2023/06/29 05:58:35;;;;;;;3.83;2.67;;;25.60;66.40;;;;;;6215783;28;20042;-77
2023/06/29 06:01:38;;;;;;;6.20;3.35;;;25.40;66.90;;;;;;6221921;28;20042;-77
2023/06/29 06:04:40;;;;;;;7.82;3.72;;;25.10;67.50;;;;;;6225258;28;20065;-77
2023/06/29 06:07:43;;;;;;;3.00;2.70;;;24.70;68.10;;;;;;6227472;28;20050;-77
2023/06/29 06:10:45;;;;;;;8.25;3.00;;;24.30;69.70;;;;;;6225616;28;20185;-77
2023/06/29 06:13:50;;;;;;;8.75;2.90;;;24.20;70.10;;;;;;6225732;28;20061;-77
2023/06/29 06:16:52;;;;;;;5.95;2.83;;;24.30;70.40;;;;;;6223870;28;20106;-77
2023/06/29 06:19:55;;;;;;;5.70;4.55;;;24.40;70.30;;;;;;6218589;28;20046;-77
2023/06/29 06:22:57;;;;;;;5.72;3.10;;;24.50;70.50;;;;;;6205347;28;20042;-77
2023/06/29 06:25:58;;;;;;;10.65;3.97;;;24.60;70.30;;;;;;6200942;28;20057;-77
2023/06/29 06:29:01;;;;;;;4.93;2.88;;;24.60;70.30;;;;;;6203922;28;20049;-76
2023/06/29 06:32:04;;;;;;;6.15;3.60;;;24.60;70.10;;;;;;6209965;28;20041;-77
2023/06/29 06:35:08;;;;;;;3.03;2.58;;;24.70;70.30;;;;;;6211481;28;20038;-76
2023/06/29 06:38:09;;;;;;;7.40;3.08;;;24.70;70.20;;;;;;6208504;28;20069;-77
2023/06/29 06:41:11;;;;;;;7.85;4.00;;;24.60;70.30;;;;;;6212285;28;20057;-77
2023/06/29 06:44:14;;;;;;;6.85;3.35;;;24.50;70.70;;;;;;6210926;28;20038;-77
2023/06/29 06:47:16;;;;;;;3.38;2.85;;;24.40;70.70;;;;;;6209979;28;20075;-76
2023/06/29 06:50:17;;;;;;;3.95;2.58;;;24.30;70.80;;;;;;6211874;28;20133;-76
2023/06/29 06:53:19;;;;;;;5.72;3.00;;;24.30;71.10;;;;;;6215042;28;20061;-77
2023/06/29 06:56:22;;;;;;;5.50;2.92;;;24.40;71.10;;;;;;6213386;28;20050;-77
2023/06/29 06:59:25;;;;;;;18.17;4.57;;;24.50;70.60;;;;;;6210827;28;20050;-77
2023/06/29 07:02:27;;;;;;;4.85;2.67;;;24.50;70.50;;;;;;6209881;28;20045;-78
2023/06/29 07:05:29;;;;;;;5.57;2.92;;;24.50;70.50;;;;;;6209491;28;20060;-78
2023/06/29 07:08:32;;;;;;;4.55;3.13;;;24.70;70.30;;;;;;6211853;28;20053;-78
2023/06/29 07:11:34;;;;;;;5.75;4.05;;;24.80;70.10;;;;;;6211463;28;20053;-78
2023/06/29 07:14:37;;;;;;;5.20;2.47;;;25.10;69.80;;;;;;6210117;28;20054;-78
2023/06/29 07:17:39;;;;;;;6.63;2.67;;;25.30;69.50;;;;;;6210137;28;20054;-79
2023/06/29 07:20:40;;;;;;;3.72;2.53;;;25.50;68.80;;;;;;6211124;28;20060;-78
2023/06/29 07:23:42;;;;;;;2.90;2.47;;;25.70;68.30;;;;;;6210750;28;20042;-78
2023/06/29 07:26:44;;;;;;;4.90;2.53;;;26.00;67.50;;;;;;6213704;28;20041;-79
2023/06/29 07:29:47;;;;;;;5.85;2.85;;;26.00;67.00;;;;;;6212900;28;20498;-77
2023/06/29 07:32:49;;;;;;;3.63;2.72;;;26.20;66.80;;;;;;6211414;28;20618;-77
2023/06/29 07:35:50;;;;;;;4.07;2.83;;;26.40;66.60;;;;;;6210719;28;20545;-78
2023/06/29 07:38:53;;;;;;;5.70;2.90;;;26.70;66.10;;;;;;6210608;28;20042;-77
2023/06/29 07:41:54;;;;;;;5.22;2.90;;;26.90;65.50;;;;;;6213180;28;20093;-78
2023/06/29 07:44:57;;;;;;;5.65;3.05;;;27.00;65.10;;;;;;6213632;28;20073;-78
2023/06/29 07:47:59;;;;;;;3.55;2.63;;;26.90;64.60;;;;;;6211402;28;20046;-78
2023/06/29 07:51:03;;;;;;;5.68;2.97;;;27.00;64.60;;;;;;6211501;28;20038;-79
2023/06/29 07:54:06;;;;;;;6.28;2.65;;;27.10;64.30;;;;;;6214574;28;20097;-79
2023/06/29 07:57:08;;;;;;;3.42;2.67;;;27.10;63.80;;;;;;6217408;28;20042;-78
2023/06/29 08:00:12;;;;;;;2.85;2.35;;;27.00;63.60;;;;;;6209356;28;20045;-77
2023/06/29 08:03:14;;;;;;;4.10;2.83;;;27.00;63.60;;;;;;6209366;28;20053;-78
2023/06/29 08:06:16;;;;;;;7.30;2.63;;;27.00;63.60;;;;;;6209961;28;20046;-78
2023/06/29 08:09:18;;;;;;;8.23;3.40;;;27.10;63.40;;;;;;6222721;28;20050;-77
2023/06/29 08:12:20;;;;;;;4.95;2.30;;;27.30;63.10;;;;;;6218301;28;20390;-78
2023/06/29 08:15:23;;;;;;;12.85;3.88;;;27.40;62.50;;;;;;6222272;28;20052;-78
2023/06/29 08:18:25;;;;;;;4.90;2.50;;;27.40;61.70;;;;;;6214441;28;20057;-77
2023/06/29 08:21:27;;;;;;;4.85;2.30;;;27.40;62.10;;;;;;6213756;28;20058;-77
2023/06/29 08:24:29;;;;;;;7.75;2.92;;;27.60;61.90;;;;;;6214282;28;20054;-77
2023/06/29 08:27:31;;;;;;;7.82;3.17;;;27.70;61.40;;;;;;6217768;28;20137;-77
2023/06/29 08:30:34;;;;;;;5.72;2.60;;;27.70;60.90;;;;;;6215676;28;20062;-75
2023/06/29 08:33:37;;;;;;;11.55;2.83;;;27.90;60.60;;;;;;6210417;28;20058;-78
2023/06/29 08:36:39;;;;;;;4.03;2.83;;;27.90;60.20;;;;;;6212136;28;20056;-78
2023/06/29 08:39:41;;;;;;;11.77;2.95;;;28.00;60.60;;;;;;6209547;28;20037;-79
2023/06/29 08:42:43;;;;;;;5.75;2.72;;;28.20;60.30;;;;;;6211423;28;20061;-78
2023/06/29 08:45:46;;;;;;;5.13;3.38;;;28.60;59.60;;;;;;6210548;28;20041;-79
2023/06/29 08:48:49;;;;;;;14.40;3.53;;;29.00;60.50;;;;;;6207248;28;21572;-78
2023/06/29 08:51:56;;;;;;;8.80;2.58;;;29.80;61.10;;;;;;6210377;28;20493;-79
2023/06/29 08:54:58;;;;;;;7.20;2.53;;;30.50;60.40;;;;;;6209756;28;20054;-80
2023/06/29 08:58:01;;;;;;;7.70;4.07;;;30.70;59.30;;;;;;6211411;28;20045;-80
2023/06/29 09:01:04;;;;;;;6.82;3.03;;;30.50;58.70;;;;;;6215126;28;20049;-80
2023/06/29 09:04:06;;;;;;;11.23;3.15;;;30.50;58.70;;;;;;6215584;28;20509;-80
2023/06/29 09:07:08;;;;;;;5.57;3.28;;;30.50;58.10;;;;;;6216311;28;20112;-78
2023/06/29 09:10:11;;;;;;;9.18;3.25;;;30.60;57.80;;;;;;6217317;28;20049;-78
2023/06/29 09:13:13;;;;;;;5.47;3.03;;;30.70;57.10;;;;;;6221851;28;20037;-80
2023/06/29 09:16:17;;;;;;;5.93;2.85;;;30.90;56.70;;;;;;6235858;28;20054;-80
2023/06/29 09:19:19;;;;;;;8.10;2.80;;;31.10;56.10;;;;;;6235016;28;20066;-79
2023/06/29 09:22:22;;;;;;;8.38;2.80;;;31.30;55.50;;;;;;6220563;28;20713;-78
2023/06/29 09:25:26;;;;;;;5.88;2.63;;;31.30;55.30;;;;;;6215584;28;20045;-79
2023/06/29 09:28:28;;;;;;;10.70;3.28;;;31.30;55.20;;;;;;6216134;28;20421;-78
2023/06/29 09:31:32;;;;;;;6.30;2.78;;;31.30;55.10;;;;;;6217053;28;20524;-79
2023/06/29 09:34:34;;;;;;;8.68;3.38;;;31.30;54.30;;;;;;6217865;28;20054;-79
2023/06/29 09:37:37;;;;;;;7.85;3.20;;;31.10;54.30;;;;;;6216586;28;23295;-78
2023/06/29 09:40:49;;;;;;;7.72;3.08;;;30.70;54.60;;;;;;6217096;28;20497;-79
2023/06/29 09:43:53;;;;;;;7.60;3.80;;;30.40;55.00;;;;;;6223358;28;20485;-80
2023/06/29 09:47:05;;;;;;;7.95;4.13;;;30.10;55.60;;;;;;6220057;28;20046;-78
2023/06/29 09:50:17;;;;;;;7.72;3.28;;;29.70;58.20;;;;;;6217389;28;20046;-80
2023/06/29 09:53:28;;;;;;;5.05;3.70;;;29.40;60.40;;;;;;6219683;28;20046;-79
2023/06/29 09:56:33;;;;;;;3.80;3.22;;;29.20;61.60;;;;;;6216364;28;20068;-79
2023/06/29 09:59:36;;;;;;;4.35;2.75;;;29.10;62.10;;;;;;6219584;28;20106;-79
2023/06/29 10:02:39;;;;;;;10.40;4.03;;;29.00;62.00;;;;;;6218486;28;20054;-77
2023/06/29 10:05:41;;;;;;;6.10;3.97;;;29.00;61.70;;;;;;6225653;28;20144;-81
2023/06/29 10:08:45;;;;;;;4.28;3.30;;;29.10;61.30;;;;;;6215315;28;20042;-80
2023/06/29 10:11:50;;;;;;;7.47;4.28;;;29.20;60.10;;;;;;6215265;28;20046;-80
2023/06/29 10:14:54;;;;;;;8.57;2.92;;;29.40;59.90;;;;;;6228994;28;20129;-80
2023/06/29 10:18:03;;;;;;;5.47;3.17;;;29.70;59.20;;;;;;6215646;28;20052;-79
2023/06/29 10:21:05;;;;;;;5.75;3.03;;;30.00;58.30;;;;;;6216374;28;20046;-79
2023/06/29 10:24:07;;;;;;;6.70;3.45;;;30.20;57.20;;;;;;6216266;28;20464;-80
2023/06/29 10:27:10;;;;;;;6.03;3.30;;;30.30;56.40;;;;;;6221951;28;20037;-81
2023/06/29 10:30:18;;;;;;;7.70;2.78;;;30.40;55.80;;;;;;6234195;28;20447;-79
2023/06/29 10:33:24;;;;;;;4.18;2.88;;;30.30;55.20;;;;;;6213443;28;20058;-79
2023/06/29 10:36:26;;;;;;;6.05;3.35;;;30.10;55.20;;;;;;6210594;28;20058;-78
2023/06/29 10:39:43;;;;;;;5.03;2.63;;;30.10;54.90;;;;;;6213150;28;20037;-79
2023/06/29 10:42:51;;;;;;;7.23;2.93;;;30.00;54.90;;;;;;6215251;28;20100;-79
2023/06/29 10:45:52;;;;;;;6.75;3.28;;;30.00;55.00;;;;;;6214012;28;20046;-78
2023/06/29 10:49:02;;;;;;;8.23;3.55;;;29.90;54.90;;;;;;6216879;28;20041;-79
2023/06/29 10:52:05;;;;;;;6.32;2.80;;;29.70;55.00;;;;;;6218010;28;20045;-79
2023/06/29 10:55:17;;;;;;;5.00;2.63;;;29.60;55.00;;;;;;6220364;28;20611;-79
2023/06/29 10:58:21;;;;;;;7.05;2.67;;;29.50;54.90;;;;;;6219586;28;20049;-78
2023/06/29 11:01:23;;;;;;;9.13;3.15;;;29.40;55.00;;;;;;6234373;28;20049;-80
2023/06/29 11:04:27;;;;;;;7.13;2.80;;;29.50;55.20;;;;;;6239476;28;20048;-81
2023/06/29 11:07:29;;;;;;;6.55;2.72;;;29.50;55.00;;;;;;6238333;28;20071;-80
2023/06/29 11:10:31;;;;;;;3.20;2.30;;;29.50;54.70;;;;;;6233389;28;20049;-79
2023/06/29 11:13:33;;;;;;;7.15;3.08;;;29.60;54.50;;;;;;6236188;28;20042;-79
2023/06/29 11:16:35;;;;;;;4.78;2.28;;;29.70;54.40;;;;;;6228521;28;20058;-78
2023/06/29 11:19:43;;;;;;;3.35;2.75;;;29.80;54.20;;;;;;6218234;28;20053;-78
2023/06/29 11:22:46;;;;;;;6.68;2.75;;;30.20;53.60;;;;;;6218143;28;20425;-79
2023/06/29 11:25:48;;;;;;;9.77;2.72;;;30.60;53.10;;;;;;6217059;28;20045;-78
2023/06/29 11:28:50;;;;;;;4.85;2.67;;;31.10;52.30;;;;;;6214368;28;20050;-78
2023/06/29 11:31:51;;;;;;;4.78;2.25;;;31.50;51.00;;;;;;6209712;28;20046;-77
2023/06/29 11:35:01;;;;;;;2.75;2.03;;;31.70;50.30;;;;;;6212002;28;20501;-75
2023/06/29 11:38:03;;;;;;;2.55;1.75;;;31.70;48.80;;;;;;6207759;28;20053;-76
2023/06/29 11:41:05;;;;;;;3.55;2.20;;;31.50;48.30;;;;;;6209338;28;20109;-78
2023/06/29 11:44:08;;;;;;;1.77;1.65;;;31.40;48.00;;;;;;6210285;28;20481;-79
2023/06/29 11:47:09;;;;;;;4.25;2.90;;;31.30;47.80;;;;;;6212293;28;20044;-78
2023/06/29 11:50:13;;;;;;;2.88;2.00;;;31.30;48.00;;;;;;6211429;28;20045;-78
2023/06/29 11:53:15;;;;;;;5.13;2.42;;;31.10;48.30;;;;;;6208689;28;20057;-78
2023/06/29 11:56:24;;;;;;;5.07;2.35;;;31.10;48.10;;;;;;6211101;28;20153;-78
2023/06/29 11:59:26;;;;;;;7.20;3.33;;;30.90;48.00;;;;;;6210263;28;20050;-78
2023/06/29 12:02:28;;;;;;;2.55;2.25;;;31.00;48.50;;;;;;6209822;28;20041;-78
2023/06/29 12:05:31;;;;;;;4.53;2.47;;;31.00;48.40;;;;;;6209495;28;20053;-79
2023/06/29 12:08:39;;;;;;;3.10;2.67;;;31.30;47.80;;;;;;6210395;28;20054;-77
2023/06/29 12:11:41;;;;;;;5.53;2.40;;;31.20;47.70;;;;;;6208692;28;20057;-79
2023/06/29 12:14:42;;;;;;;5.70;2.42;;;31.40;48.30;;;;;;6211901;28;20041;-79
2023/06/29 12:17:45;;;;;;;3.35;2.50;;;31.90;48.60;;;;;;6211378;28;20041;-79
2023/06/29 12:20:48;;;;;;;5.70;2.45;;;32.40;48.10;;;;;;6210352;28;20581;-79
2023/06/29 12:23:50;;;;;;;8.55;3.25;;;32.70;47.50;;;;;;6210493;28;20041;-79
2023/06/29 12:26:52;;;;;;;8.13;2.95;;;32.80;47.10;;;;;;6209778;28;20263;-79
2023/06/29 12:29:54;;;;;;;3.40;2.60;;;32.80;46.80;;;;;;6210078;28;20045;-78
2023/06/29 12:32:55;;;;;;;3.20;2.45;;;33.20;46.30;;;;;;6212553;28;20050;-79
2023/06/29 12:35:59;;;;;;;2.67;2.45;;;33.10;46.10;;;;;;6212014;28;20045;-79
2023/06/29 12:39:00;;;;;;;12.32;3.33;;;33.10;46.30;;;;;;6213358;28;20041;-80
2023/06/29 12:42:02;;;;;;;6.53;2.75;;;33.20;46.00;;;;;;6213564;28;20037;-77
2023/06/29 12:45:05;;;;;;;4.78;1.92;;;33.50;45.90;;;;;;6209308;28;20050;-77
2023/06/29 12:48:07;;;;;;;3.97;2.53;;;33.70;45.40;;;;;;6215042;28;20050;-77
2023/06/29 12:51:10;;;;;;;3.88;2.00;;;33.60;45.00;;;;;;6216294;28;20058;-79
2023/06/29 12:54:12;;;;;;;3.10;2.45;;;33.70;44.70;;;;;;6219321;28;20053;-77
2023/06/29 12:57:13;;;;;;;4.18;2.17;;;33.90;44.40;;;;;;6216864;28;20068;-77
2023/06/29 13:00:18;;;;;;;4.60;2.60;;;34.20;44.20;;;;;;6219016;28;20054;-77
2023/06/29 13:03:20;;;;;;;7.72;2.30;;;34.40;43.90;;;;;;6221644;28;20049;-78
2023/06/29 13:06:23;;;;;;;4.30;2.63;;;34.40;43.40;;;;;;6220198;28;20056;-78
2023/06/29 13:09:24;;;;;;;3.70;2.13;;;34.30;43.20;;;;;;6221113;28;20045;-78
2023/06/29 13:12:26;;;;;;;3.90;1.98;;;34.00;43.30;;;;;;6220673;28;20049;-79
2023/06/29 13:15:28;;;;;;;3.30;2.95;;;34.10;44.00;;;;;;6212638;28;20057;-77
2023/06/29 13:18:35;;;;;;;5.90;2.15;;;34.00;44.20;;;;;;6205937;28;20069;-76
2023/06/29 13:21:39;;;;;;;5.78;2.80;;;33.80;44.40;;;;;;6207526;28;20123;-78
2023/06/29 13:24:41;;;;;;;3.65;2.30;;;33.50;44.40;;;;;;6208767;28;20417;-76
2023/06/29 13:27:44;;;;;;;3.58;2.10;;;33.30;44.50;;;;;;6210433;28;21634;-80
2023/06/29 13:30:46;;;;;;;3.60;2.35;;;33.00;44.70;;;;;;6215386;28;20260;-81
2023/06/29 13:33:55;;;;;;;4.05;2.75;;;32.80;44.80;;;;;;6217733;28;20053;-81
2023/06/29 13:37:25;;;;;;;5.10;2.70;;;32.70;44.70;;;;;;6216866;28;20317;-80
2023/06/29 13:40:28;;;;;;;5.43;3.58;;;32.60;45.00;;;;;;6222636;28;20057;-82
2023/06/29 13:43:29;;;;;;;3.40;2.30;;;32.60;45.20;;;;;;6220169;28;20038;-80
2023/06/29 13:46:31;;;;;;;5.00;2.58;;;32.60;45.30;;;;;;6218400;28;20054;-79
2023/06/29 13:49:33;;;;;;;5.07;2.92;;;32.60;45.60;;;;;;6218579;28;20069;-79
2023/06/29 13:52:36;;;;;;;12.68;4.38;;;32.60;45.90;;;;;;6218468;28;20046;-80
2023/06/29 13:55:38;;;;;;;3.75;2.08;;;32.70;46.00;;;;;;6216616;28;20058;-80
2023/06/29 13:58:40;;;;;;;2.97;2.40;;;32.90;45.90;;;;;;6214429;28;20104;-81
2023/06/29 14:01:43;;;;;;;4.97;3.25;;;33.00;45.60;;;;;;6213618;28;20386;-80
2023/06/29 14:04:45;;;;;;;6.93;3.78;;;33.30;45.40;;;;;;6213528;28;20042;-78
2023/06/29 14:07:48;;;;;;;5.22;2.95;;;33.30;45.00;;;;;;6213372;28;20096;-81
2023/06/29 14:11:02;;;;;;;7.28;2.80;;;33.10;45.00;;;;;;6216311;28;20053;-79
2023/06/29 14:14:32;;;;;;;8.68;3.85;;;32.90;45.40;;;;;;6215622;28;20050;-80
2023/06/29 14:24:37;;;;;;;6.15;3.30;;;32.00;45.40;;;;;;5875924;27;14313258;-79
2023/06/29 14:27:39;;;;;;;5.55;3.47;;;31.70;45.90;;;;;;6302913;28;20040;-81
2023/06/29 14:30:41;;;;;;;12.13;4.32;;;31.50;46.10;;;;;;6285304;28;20074;-82
2023/06/29 14:33:43;;;;;;;9.25;3.22;;;31.30;47.00;;;;;;6289449;28;20040;-80
2023/06/29 14:36:44;;;;;;;7.63;3.17;;;31.10;49.60;;;;;;6294309;28;20056;-80
2023/06/29 14:39:47;;;;;;;4.90;3.72;;;30.70;51.00;;;;;;6273436;28;20057;-83
2023/06/29 14:42:49;;;;;;;4.90;3.20;;;30.20;51.50;;;;;;6280789;28;20056;-80
2023/06/29 14:45:52;;;;;;;5.68;3.47;;;29.80;52.70;;;;;;6297438;28;20051;-81
2023/06/29 14:48:54;;;;;;;10.48;3.13;;;29.60;52.60;;;;;;6294745;28;20032;-81
2023/06/29 14:51:56;;;;;;;7.53;3.83;;;29.30;52.70;;;;;;6290507;28;20044;-81
2023/06/29 14:54:59;;;;;;;9.05;2.65;;;29.10;52.50;;;;;;6296026;28;20574;-80
2023/06/29 14:58:02;;;;;;;7.65;3.55;;;29.00;52.50;;;;;;6288172;28;20431;-81
2023/06/29 15:01:04;;;;;;;5.25;2.67;;;28.80;53.00;;;;;;6294785;28;20443;-84
2023/06/29 15:04:07;;;;;;;5.63;3.05;;;28.70;53.00;;;;;;6294798;28;20033;-83
2023/06/29 15:07:09;;;;;;;5.70;2.90;;;28.50;54.50;;;;;;6298606;28;20041;-83
2023/06/29 15:10:12;;;;;;;5.95;2.97;;;28.40;56.70;;;;;;6298185;28;21178;-82
2023/06/29 15:16:29;;;;;;;6.15;3.20;;;28.20;55.40;;;;;;6293520;28;20053;-82
2023/06/29 15:19:31;;;;;;;5.15;3.17;;;28.20;55.70;;;;;;6296165;28;20051;-82
2023/06/29 15:22:33;;;;;;;5.47;4.32;;;28.20;56.00;;;;;;6296219;28;20041;-80
2023/06/29 15:25:37;;;;;;;3.60;3.20;;;28.30;54.70;;;;;;6294558;28;20063;-83
2023/06/29 15:28:39;;;;;;;5.80;3.90;;;28.50;54.00;;;;;;6303496;28;20049;-81
2023/06/29 15:31:41;;;;;;;4.55;3.35;;;28.70;53.30;;;;;;6297631;28;20067;-82
2023/06/29 15:34:42;;;;;;;8.05;4.57;;;28.90;52.50;;;;;;6282849;28;20045;-81
2023/06/29 15:37:44;;;;;;;5.70;4.15;;;29.00;52.10;;;;;;6279772;28;20057;-81
2023/06/29 15:40:47;;;;;;;5.85;3.42;;;29.20;52.10;;;;;;6278410;28;20052;-82
2023/06/29 15:43:49;;;;;;;4.90;4.03;;;29.50;51.70;;;;;;6284034;28;20050;-82
2023/06/29 15:46:52;;;;;;;4.00;3.15;;;29.80;51.40;;;;;;6274776;28;20195;-81
2023/06/29 15:49:54;;;;;;;4.80;3.88;;;30.10;51.00;;;;;;6273843;28;20557;-81
2023/06/29 15:52:56;;;;;;;8.10;3.83;;;30.40;50.70;;;;;;6276821;28;20079;-81
2023/06/29 15:55:59;;;;;;;7.18;3.88;;;30.40;50.60;;;;;;6279906;28;20060;-82
2023/06/29 15:59:01;;;;;;;4.55;3.60;;;30.50;50.50;;;;;;6274908;28;20045;-81
2023/06/29 16:02:03;;;;;;;8.73;3.63;;;30.50;50.50;;;;;;6280003;28;20056;-80